sensor_id;sensor_type;location;lat;lon;timestamp;P1;durP1;ratioP1;P2;durP2;ratioP2
64986;SDS011;67903;52.108;9.358;2023-04-08T00:00:27;7.03;;;6.28;;
64986;SDS011;67903;52.108;9.358;2023-04-08T00:02:54;6.53;;;5.93;;
64986;SDS011;67903;52.108;9.358;2023-04-08T00:05:21;8.20;;;6.18;;
64986;SDS011;67903;52.108;9.358;2023-04-08T00:07:47;6.68;;;5.90;;
64986;SDS011;67903;52.108;9.358;2023-04-08T00:10:14;6.15;;;5.55;;
64986;SDS011;67903;52.108;9.358;2023-04-08T00:12:41;6.80;;;5.80;;
64986;SDS011;67903;52.108;9.358;2023-04-08T00:15:08;7.03;;;5.88;;
64986;SDS011;67903;52.108;9.358;2023-04-08T00:17:35;6.55;;;5.95;;
64986;SDS011;67903;52.108;9.358;2023-04-08T00:20:02;7.55;;;6.32;;
64986;SDS011;67903;52.108;9.358;2023-04-08T00:22:29;7.70;;;6.47;;
64986;SDS011;67903;52.108;9.358;2023-04-08T00:24:56;9.35;;;6.43;;
64986;SDS011;67903;52.108;9.358;2023-04-08T00:27:23;6.88;;;6.28;;
64986;SDS011;67903;52.108;9.358;2023-04-08T00:29:50;7.22;;;6.53;;
64986;SDS011;67903;52.108;9.358;2023-04-08T00:32:17;7.13;;;6.53;;
64986;SDS011;67903;52.108;9.358;2023-04-08T00:34:44;8.48;;;6.75;;
64986;SDS011;67903;52.108;9.358;2023-04-08T00:37:11;6.97;;;6.22;;
64986;SDS011;67903;52.108;9.358;2023-04-08T00:39:37;7.07;;;6.38;;
64986;SDS011;67903;52.108;9.358;2023-04-08T00:42:04;7.10;;;6.20;;
64986;SDS011;67903;52.108;9.358;2023-04-08T00:44:31;7.78;;;6.35;;
64986;SDS011;67903;52.108;9.358;2023-04-08T00:46:58;8.73;;;7.18;;
64986;SDS011;67903;52.108;9.358;2023-04-08T00:49:25;7.45;;;6.75;;
64986;SDS011;67903;52.108;9.358;2023-04-08T00:51:53;7.43;;;6.72;;
64986;SDS011;67903;52.108;9.358;2023-04-08T00:54:20;7.28;;;6.57;;
64986;SDS011;67903;52.108;9.358;2023-04-08T00:56:47;7.15;;;6.20;;
64986;SDS011;67903;52.108;9.358;2023-04-08T00:59:14;8.10;;;6.55;;
64986;SDS011;67903;52.108;9.358;2023-04-08T01:02:28;6.63;;;6.03;;
64986;SDS011;67903;52.108;9.358;2023-04-08T01:04:55;8.82;;;6.53;;
64986;SDS011;67903;52.108;9.358;2023-04-08T01:07:32;8.18;;;6.65;;
64986;SDS011;67903;52.108;9.358;2023-04-08T01:10:02;7.22;;;5.85;;
64986;SDS011;67903;52.108;9.358;2023-04-08T01:12:35;7.95;;;7.00;;
64986;SDS011;67903;52.108;9.358;2023-04-08T01:15:06;7.07;;;6.38;;
64986;SDS011;67903;52.108;9.358;2023-04-08T01:17:34;8.85;;;6.70;;
64986;SDS011;67903;52.108;9.358;2023-04-08T01:20:02;7.78;;;7.00;;
64986;SDS011;67903;52.108;9.358;2023-04-08T01:22:43;7.57;;;6.80;;
64986;SDS011;67903;52.108;9.358;2023-04-08T01:25:30;7.35;;;6.65;;
64986;SDS011;67903;52.108;9.358;2023-04-08T01:27:59;7.45;;;6.70;;
64986;SDS011;67903;52.108;9.358;2023-04-08T01:30:29;7.45;;;6.68;;
64986;SDS011;67903;52.108;9.358;2023-04-08T01:32:57;8.55;;;6.70;;
64986;SDS011;67903;52.108;9.358;2023-04-08T01:35:27;8.38;;;7.45;;
64986;SDS011;67903;52.108;9.358;2023-04-08T01:37:55;7.07;;;6.43;;
64986;SDS011;67903;52.108;9.358;2023-04-08T01:40:23;7.18;;;6.47;;
64986;SDS011;67903;52.108;9.358;2023-04-08T01:42:54;7.80;;;7.03;;
64986;SDS011;67903;52.108;9.358;2023-04-08T01:45:22;9.05;;;6.18;;
64986;SDS011;67903;52.108;9.358;2023-04-08T01:47:50;8.25;;;6.53;;
64986;SDS011;67903;52.108;9.358;2023-04-08T01:50:18;8.05;;;6.72;;
64986;SDS011;67903;52.108;9.358;2023-04-08T01:52:46;6.80;;;6.10;;
64986;SDS011;67903;52.108;9.358;2023-04-08T01:55:15;8.27;;;6.90;;
64986;SDS011;67903;52.108;9.358;2023-04-08T01:57:43;7.90;;;7.10;;
64986;SDS011;67903;52.108;9.358;2023-04-08T02:00:16;7.90;;;7.10;;
64986;SDS011;67903;52.108;9.358;2023-04-08T02:02:45;9.18;;;7.95;;
64986;SDS011;67903;52.108;9.358;2023-04-08T02:05:13;8.43;;;7.63;;
64986;SDS011;67903;52.108;9.358;2023-04-08T02:07:40;8.95;;;8.05;;
64986;SDS011;67903;52.108;9.358;2023-04-08T02:10:07;9.88;;;7.00;;
64986;SDS011;67903;52.108;9.358;2023-04-08T02:12:35;8.65;;;7.75;;
64986;SDS011;67903;52.108;9.358;2023-04-08T02:15:07;7.60;;;6.90;;
64986;SDS011;67903;52.108;9.358;2023-04-08T02:17:44;9.52;;;8.18;;
64986;SDS011;67903;52.108;9.358;2023-04-08T02:20:19;8.85;;;7.93;;
64986;SDS011;67903;52.108;9.358;2023-04-08T02:23:08;9.82;;;8.38;;
64986;SDS011;67903;52.108;9.358;2023-04-08T02:25:40;10.85;;;8.50;;
64986;SDS011;67903;52.108;9.358;2023-04-08T02:28:10;10.30;;;8.18;;
64986;SDS011;67903;52.108;9.358;2023-04-08T02:30:43;9.52;;;8.43;;
64986;SDS011;67903;52.108;9.358;2023-04-08T02:33:17;9.02;;;8.13;;
64986;SDS011;67903;52.108;9.358;2023-04-08T02:35:46;9.77;;;8.77;;
64986;SDS011;67903;52.108;9.358;2023-04-08T02:38:15;10.13;;;9.07;;
64986;SDS011;67903;52.108;9.358;2023-04-08T02:40:42;9.98;;;8.63;;
64986;SDS011;67903;52.108;9.358;2023-04-08T02:43:09;10.02;;;9.00;;
64986;SDS011;67903;52.108;9.358;2023-04-08T02:45:42;11.82;;;9.23;;
64986;SDS011;67903;52.108;9.358;2023-04-08T02:48:10;11.85;;;9.48;;
64986;SDS011;67903;52.108;9.358;2023-04-08T02:50:37;10.65;;;9.48;;
64986;SDS011;67903;52.108;9.358;2023-04-08T02:53:05;11.27;;;9.48;;
64986;SDS011;67903;52.108;9.358;2023-04-08T02:55:33;10.65;;;9.55;;
64986;SDS011;67903;52.108;9.358;2023-04-08T02:58:00;12.50;;;10.48;;
64986;SDS011;67903;52.108;9.358;2023-04-08T03:00:26;12.70;;;10.82;;
64986;SDS011;67903;52.108;9.358;2023-04-08T03:02:53;11.77;;;10.55;;
64986;SDS011;67903;52.108;9.358;2023-04-08T03:05:20;12.73;;;10.80;;
64986;SDS011;67903;52.108;9.358;2023-04-08T03:07:47;12.38;;;10.93;;
64986;SDS011;67903;52.108;9.358;2023-04-08T03:10:14;12.50;;;10.32;;
64986;SDS011;67903;52.108;9.358;2023-04-08T03:12:41;12.98;;;10.73;;
64986;SDS011;67903;52.108;9.358;2023-04-08T03:15:08;14.00;;;11.52;;
64986;SDS011;67903;52.108;9.358;2023-04-08T03:17:35;13.23;;;11.32;;
64986;SDS011;67903;52.108;9.358;2023-04-08T03:20:02;15.52;;;12.05;;
64986;SDS011;67903;52.108;9.358;2023-04-08T03:22:30;14.95;;;12.18;;
64986;SDS011;67903;52.108;9.358;2023-04-08T03:24:58;13.55;;;11.93;;
64986;SDS011;67903;52.108;9.358;2023-04-08T03:27:25;14.60;;;11.95;;
64986;SDS011;67903;52.108;9.358;2023-04-08T03:29:52;14.73;;;11.88;;
64986;SDS011;67903;52.108;9.358;2023-04-08T03:32:19;14.90;;;12.27;;
64986;SDS011;67903;52.108;9.358;2023-04-08T03:34:46;14.35;;;11.52;;
64986;SDS011;67903;52.108;9.358;2023-04-08T03:37:14;13.82;;;12.32;;
64986;SDS011;67903;52.108;9.358;2023-04-08T03:39:42;14.07;;;12.57;;
64986;SDS011;67903;52.108;9.358;2023-04-08T03:42:08;14.07;;;11.45;;
64986;SDS011;67903;52.108;9.358;2023-04-08T03:44:35;15.68;;;12.75;;
64986;SDS011;67903;52.108;9.358;2023-04-08T03:47:02;13.25;;;11.27;;
64986;SDS011;67903;52.108;9.358;2023-04-08T03:49:29;13.13;;;11.75;;
64986;SDS011;67903;52.108;9.358;2023-04-08T03:51:55;14.32;;;11.82;;
64986;SDS011;67903;52.108;9.358;2023-04-08T03:54:22;13.85;;;11.68;;
64986;SDS011;67903;52.108;9.358;2023-04-08T03:56:49;13.82;;;12.02;;
64986;SDS011;67903;52.108;9.358;2023-04-08T03:59:16;12.43;;;10.77;;
64986;SDS011;67903;52.108;9.358;2023-04-08T04:01:42;12.70;;;11.10;;
64986;SDS011;67903;52.108;9.358;2023-04-08T04:04:09;11.52;;;10.40;;
64986;SDS011;67903;52.108;9.358;2023-04-08T04:06:36;12.40;;;10.45;;
64986;SDS011;67903;52.108;9.358;2023-04-08T04:09:03;11.63;;;10.48;;
64986;SDS011;67903;52.108;9.358;2023-04-08T04:11:30;12.05;;;10.77;;
64986;SDS011;67903;52.108;9.358;2023-04-08T04:13:59;12.02;;;10.73;;
64986;SDS011;67903;52.108;9.358;2023-04-08T04:16:25;11.40;;;10.18;;
64986;SDS011;67903;52.108;9.358;2023-04-08T04:18:52;12.23;;;10.93;;
64986;SDS011;67903;52.108;9.358;2023-04-08T04:21:19;13.15;;;10.15;;
64986;SDS011;67903;52.108;9.358;2023-04-08T04:23:46;12.88;;;10.20;;
64986;SDS011;67903;52.108;9.358;2023-04-08T04:26:13;11.35;;;9.65;;
64986;SDS011;67903;52.108;9.358;2023-04-08T04:28:40;11.85;;;9.57;;
64986;SDS011;67903;52.108;9.358;2023-04-08T04:31:07;10.68;;;9.30;;
64986;SDS011;67903;52.108;9.358;2023-04-08T04:33:34;11.50;;;9.98;;
64986;SDS011;67903;52.108;9.358;2023-04-08T04:36:00;11.13;;;9.77;;
64986;SDS011;67903;52.108;9.358;2023-04-08T04:38:27;12.38;;;9.35;;
64986;SDS011;67903;52.108;9.358;2023-04-08T04:40:54;11.45;;;9.30;;
64986;SDS011;67903;52.108;9.358;2023-04-08T04:43:21;13.63;;;12.10;;
64986;SDS011;67903;52.108;9.358;2023-04-08T04:45:48;40.03;;;28.38;;
64986;SDS011;67903;52.108;9.358;2023-04-08T04:48:14;16.38;;;12.45;;
64986;SDS011;67903;52.108;9.358;2023-04-08T04:50:41;10.50;;;8.60;;
64986;SDS011;67903;52.108;9.358;2023-04-08T04:53:08;16.13;;;12.85;;
64986;SDS011;67903;52.108;9.358;2023-04-08T04:55:35;12.32;;;10.18;;
64986;SDS011;67903;52.108;9.358;2023-04-08T04:58:04;17.27;;;13.77;;
64986;SDS011;67903;52.108;9.358;2023-04-08T05:00:31;10.43;;;9.32;;
64986;SDS011;67903;52.108;9.358;2023-04-08T05:02:57;13.05;;;10.05;;
64986;SDS011;67903;52.108;9.358;2023-04-08T05:05:24;19.40;;;14.20;;
64986;SDS011;67903;52.108;9.358;2023-04-08T05:07:51;21.42;;;17.40;;
64986;SDS011;67903;52.108;9.358;2023-04-08T05:10:19;10.82;;;9.60;;
64986;SDS011;67903;52.108;9.358;2023-04-08T05:12:46;14.85;;;11.25;;
64986;SDS011;67903;52.108;9.358;2023-04-08T05:15:12;25.95;;;17.95;;
64986;SDS011;67903;52.108;9.358;2023-04-08T05:17:39;22.40;;;16.73;;
64986;SDS011;67903;52.108;9.358;2023-04-08T05:20:06;26.38;;;19.67;;
64986;SDS011;67903;52.108;9.358;2023-04-08T05:22:33;12.27;;;10.40;;
64986;SDS011;67903;52.108;9.358;2023-04-08T05:25:00;10.90;;;9.00;;
64986;SDS011;67903;52.108;9.358;2023-04-08T05:27:27;12.85;;;11.30;;
64986;SDS011;67903;52.108;9.358;2023-04-08T05:29:54;11.35;;;9.25;;
64986;SDS011;67903;52.108;9.358;2023-04-08T05:32:20;11.98;;;10.60;;
64986;SDS011;67903;52.108;9.358;2023-04-08T05:34:47;18.85;;;14.32;;
64986;SDS011;67903;52.108;9.358;2023-04-08T05:37:14;17.13;;;12.85;;
64986;SDS011;67903;52.108;9.358;2023-04-08T05:39:41;20.85;;;14.98;;
64986;SDS011;67903;52.108;9.358;2023-04-08T05:42:07;15.30;;;10.40;;
64986;SDS011;67903;52.108;9.358;2023-04-08T05:44:34;14.07;;;10.23;;
64986;SDS011;67903;52.108;9.358;2023-04-08T05:47:01;13.80;;;10.75;;
64986;SDS011;67903;52.108;9.358;2023-04-08T05:49:28;13.13;;;10.93;;
64986;SDS011;67903;52.108;9.358;2023-04-08T05:51:55;13.50;;;11.18;;
64986;SDS011;67903;52.108;9.358;2023-04-08T05:54:21;12.60;;;10.82;;
64986;SDS011;67903;52.108;9.358;2023-04-08T05:56:48;11.77;;;10.15;;
64986;SDS011;67903;52.108;9.358;2023-04-08T05:59:15;14.82;;;11.68;;
64986;SDS011;67903;52.108;9.358;2023-04-08T06:01:42;14.65;;;10.23;;
64986;SDS011;67903;52.108;9.358;2023-04-08T06:04:08;14.13;;;11.48;;
64986;SDS011;67903;52.108;9.358;2023-04-08T06:06:38;16.30;;;11.40;;
64986;SDS011;67903;52.108;9.358;2023-04-08T06:09:05;17.13;;;11.43;;
64986;SDS011;67903;52.108;9.358;2023-04-08T06:11:32;15.20;;;11.10;;
64986;SDS011;67903;52.108;9.358;2023-04-08T06:13:59;16.05;;;10.95;;
64986;SDS011;67903;52.108;9.358;2023-04-08T06:16:25;17.23;;;11.63;;
64986;SDS011;67903;52.108;9.358;2023-04-08T06:18:52;16.48;;;10.88;;
64986;SDS011;67903;52.108;9.358;2023-04-08T06:21:19;16.42;;;11.70;;
64986;SDS011;67903;52.108;9.358;2023-04-08T06:23:46;17.55;;;12.18;;
64986;SDS011;67903;52.108;9.358;2023-04-08T06:26:13;14.45;;;10.80;;
64986;SDS011;67903;52.108;9.358;2023-04-08T06:28:40;16.33;;;11.35;;
64986;SDS011;67903;52.108;9.358;2023-04-08T06:31:07;15.50;;;11.80;;
64986;SDS011;67903;52.108;9.358;2023-04-08T06:33:34;14.23;;;10.57;;
64986;SDS011;67903;52.108;9.358;2023-04-08T06:36:01;18.02;;;11.40;;
64986;SDS011;67903;52.108;9.358;2023-04-08T06:38:31;18.55;;;11.35;;
64986;SDS011;67903;52.108;9.358;2023-04-08T06:41:05;17.42;;;12.13;;
64986;SDS011;67903;52.108;9.358;2023-04-08T06:43:32;16.52;;;10.93;;
64986;SDS011;67903;52.108;9.358;2023-04-08T06:46:00;17.77;;;12.15;;
64986;SDS011;67903;52.108;9.358;2023-04-08T06:48:26;17.75;;;12.05;;
64986;SDS011;67903;52.108;9.358;2023-04-08T06:50:55;20.10;;;12.50;;
64986;SDS011;67903;52.108;9.358;2023-04-08T06:53:23;16.90;;;12.55;;
64986;SDS011;67903;52.108;9.358;2023-04-08T06:55:50;18.20;;;12.02;;
64986;SDS011;67903;52.108;9.358;2023-04-08T06:58:17;17.88;;;12.05;;
64986;SDS011;67903;52.108;9.358;2023-04-08T07:00:44;17.48;;;12.25;;
64986;SDS011;67903;52.108;9.358;2023-04-08T07:03:11;16.77;;;11.90;;
64986;SDS011;67903;52.108;9.358;2023-04-08T07:05:38;23.92;;;15.40;;
64986;SDS011;67903;52.108;9.358;2023-04-08T07:08:05;16.60;;;12.68;;
64986;SDS011;67903;52.108;9.358;2023-04-08T07:10:31;18.35;;;12.65;;
64986;SDS011;67903;52.108;9.358;2023-04-08T07:13:00;20.30;;;12.35;;
64986;SDS011;67903;52.108;9.358;2023-04-08T07:15:27;17.88;;;12.68;;
64986;SDS011;67903;52.108;9.358;2023-04-08T07:17:53;18.52;;;12.13;;
64986;SDS011;67903;52.108;9.358;2023-04-08T07:20:24;15.68;;;11.27;;
64986;SDS011;67903;52.108;9.358;2023-04-08T07:22:51;16.65;;;11.73;;
64986;SDS011;67903;52.108;9.358;2023-04-08T07:25:18;16.48;;;11.77;;
64986;SDS011;67903;52.108;9.358;2023-04-08T07:27:45;15.85;;;12.23;;
64986;SDS011;67903;52.108;9.358;2023-04-08T07:30:11;18.10;;;12.15;;
64986;SDS011;67903;52.108;9.358;2023-04-08T07:32:38;16.60;;;10.98;;
64986;SDS011;67903;52.108;9.358;2023-04-08T07:35:05;14.57;;;11.48;;
64986;SDS011;67903;52.108;9.358;2023-04-08T07:37:32;14.35;;;11.57;;
64986;SDS011;67903;52.108;9.358;2023-04-08T07:39:59;16.02;;;11.45;;
64986;SDS011;67903;52.108;9.358;2023-04-08T07:42:26;17.80;;;11.60;;
64986;SDS011;67903;52.108;9.358;2023-04-08T07:44:54;17.30;;;11.27;;
64986;SDS011;67903;52.108;9.358;2023-04-08T07:47:20;18.33;;;12.95;;
64986;SDS011;67903;52.108;9.358;2023-04-08T07:49:47;17.38;;;11.98;;
64986;SDS011;67903;52.108;9.358;2023-04-08T07:52:14;17.42;;;11.40;;
64986;SDS011;67903;52.108;9.358;2023-04-08T07:54:41;18.17;;;12.20;;
64986;SDS011;67903;52.108;9.358;2023-04-08T07:57:08;19.23;;;11.57;;
64986;SDS011;67903;52.108;9.358;2023-04-08T07:59:35;17.92;;;11.73;;
64986;SDS011;67903;52.108;9.358;2023-04-08T08:02:02;17.20;;;11.48;;
64986;SDS011;67903;52.108;9.358;2023-04-08T08:04:29;18.63;;;12.40;;
64986;SDS011;67903;52.108;9.358;2023-04-08T08:06:56;18.48;;;12.13;;
64986;SDS011;67903;52.108;9.358;2023-04-08T08:09:23;15.55;;;12.48;;
64986;SDS011;67903;52.108;9.358;2023-04-08T08:11:49;17.27;;;11.57;;
64986;SDS011;67903;52.108;9.358;2023-04-08T08:14:16;17.52;;;12.18;;
64986;SDS011;67903;52.108;9.358;2023-04-08T08:16:43;17.95;;;12.75;;
64986;SDS011;67903;52.108;9.358;2023-04-08T08:19:10;17.23;;;11.85;;
64986;SDS011;67903;52.108;9.358;2023-04-08T08:21:39;20.23;;;13.20;;
64986;SDS011;67903;52.108;9.358;2023-04-08T08:24:05;21.52;;;13.30;;
64986;SDS011;67903;52.108;9.358;2023-04-08T08:26:35;17.20;;;12.52;;
64986;SDS011;67903;52.108;9.358;2023-04-08T08:29:02;20.90;;;14.10;;
64986;SDS011;67903;52.108;9.358;2023-04-08T08:31:30;18.48;;;13.05;;
64986;SDS011;67903;52.108;9.358;2023-04-08T08:33:56;21.20;;;14.00;;
64986;SDS011;67903;52.108;9.358;2023-04-08T08:36:23;21.17;;;14.00;;
64986;SDS011;67903;52.108;9.358;2023-04-08T08:38:50;20.90;;;14.20;;
64986;SDS011;67903;52.108;9.358;2023-04-08T08:41:19;20.05;;;14.00;;
64986;SDS011;67903;52.108;9.358;2023-04-08T08:43:48;22.48;;;13.95;;
64986;SDS011;67903;52.108;9.358;2023-04-08T08:46:16;22.35;;;14.52;;
64986;SDS011;67903;52.108;9.358;2023-04-08T08:48:44;20.33;;;13.68;;
64986;SDS011;67903;52.108;9.358;2023-04-08T08:51:12;19.30;;;13.93;;
64986;SDS011;67903;52.108;9.358;2023-04-08T08:53:38;19.90;;;14.07;;
64986;SDS011;67903;52.108;9.358;2023-04-08T08:56:10;19.67;;;13.43;;
64986;SDS011;67903;52.108;9.358;2023-04-08T08:58:40;20.30;;;13.88;;
64986;SDS011;67903;52.108;9.358;2023-04-08T09:04:05;21.73;;;14.75;;
64986;SDS011;67903;52.108;9.358;2023-04-08T09:06:34;20.55;;;14.98;;
64986;SDS011;67903;52.108;9.358;2023-04-08T09:09:01;21.95;;;14.82;;
64986;SDS011;67903;52.108;9.358;2023-04-08T09:11:31;21.20;;;15.30;;
64986;SDS011;67903;52.108;9.358;2023-04-08T09:13:58;22.95;;;16.98;;
64986;SDS011;67903;52.108;9.358;2023-04-08T09:16:25;23.20;;;16.42;;
64986;SDS011;67903;52.108;9.358;2023-04-08T09:18:52;20.45;;;15.68;;
64986;SDS011;67903;52.108;9.358;2023-04-08T09:21:21;22.17;;;17.25;;
64986;SDS011;67903;52.108;9.358;2023-04-08T09:23:50;22.05;;;16.80;;
64986;SDS011;67903;52.108;9.358;2023-04-08T09:26:19;22.35;;;16.42;;
64986;SDS011;67903;52.108;9.358;2023-04-08T09:28:56;23.02;;;16.55;;
64986;SDS011;67903;52.108;9.358;2023-04-08T09:31:34;22.73;;;16.23;;
64986;SDS011;67903;52.108;9.358;2023-04-08T09:34:13;24.30;;;17.38;;
64986;SDS011;67903;52.108;9.358;2023-04-08T09:36:42;23.40;;;17.95;;
64986;SDS011;67903;52.108;9.358;2023-04-08T09:39:10;23.50;;;18.35;;
64986;SDS011;67903;52.108;9.358;2023-04-08T09:41:37;24.75;;;18.08;;
64986;SDS011;67903;52.108;9.358;2023-04-08T09:44:05;26.15;;;19.35;;
64986;SDS011;67903;52.108;9.358;2023-04-08T09:46:44;29.15;;;21.35;;
64986;SDS011;67903;52.108;9.358;2023-04-08T09:55:03;19.88;;;15.27;;
64986;SDS011;67903;52.108;9.358;2023-04-08T10:00:18;18.25;;;14.05;;
64986;SDS011;67903;52.108;9.358;2023-04-08T10:05:17;20.00;;;14.82;;
64986;SDS011;67903;52.108;9.358;2023-04-08T10:07:46;20.58;;;14.15;;
64986;SDS011;67903;52.108;9.358;2023-04-08T10:10:14;18.77;;;14.25;;
64986;SDS011;67903;52.108;9.358;2023-04-08T10:12:41;20.65;;;14.77;;
64986;SDS011;67903;52.108;9.358;2023-04-08T10:17:55;19.08;;;14.50;;
64986;SDS011;67903;52.108;9.358;2023-04-08T10:20:46;19.27;;;14.20;;
64986;SDS011;67903;52.108;9.358;2023-04-08T10:23:15;21.13;;;16.20;;
64986;SDS011;67903;52.108;9.358;2023-04-08T10:25:43;22.85;;;16.65;;
64986;SDS011;67903;52.108;9.358;2023-04-08T10:30:44;19.88;;;14.23;;
64986;SDS011;67903;52.108;9.358;2023-04-08T10:33:15;21.80;;;15.32;;
64986;SDS011;67903;52.108;9.358;2023-04-08T10:35:48;19.50;;;13.98;;
64986;SDS011;67903;52.108;9.358;2023-04-08T10:38:18;23.27;;;16.25;;
64986;SDS011;67903;52.108;9.358;2023-04-08T10:40:46;20.70;;;15.10;;
64986;SDS011;67903;52.108;9.358;2023-04-08T10:43:14;19.88;;;15.25;;
64986;SDS011;67903;52.108;9.358;2023-04-08T10:45:41;21.73;;;15.77;;
64986;SDS011;67903;52.108;9.358;2023-04-08T10:50:51;19.65;;;14.70;;
64986;SDS011;67903;52.108;9.358;2023-04-08T10:55:52;18.65;;;14.15;;
64986;SDS011;67903;52.108;9.358;2023-04-08T10:58:19;18.88;;;14.23;;
64986;SDS011;67903;52.108;9.358;2023-04-08T11:00:46;18.80;;;14.52;;
64986;SDS011;67903;52.108;9.358;2023-04-08T11:03:13;20.67;;;15.95;;
64986;SDS011;67903;52.108;9.358;2023-04-08T11:05:41;19.90;;;14.55;;
64986;SDS011;67903;52.108;9.358;2023-04-08T11:08:08;20.95;;;15.07;;
64986;SDS011;67903;52.108;9.358;2023-04-08T11:10:36;19.05;;;14.95;;
64986;SDS011;67903;52.108;9.358;2023-04-08T11:13:07;20.25;;;15.30;;
64986;SDS011;67903;52.108;9.358;2023-04-08T11:15:35;19.30;;;15.45;;
64986;SDS011;67903;52.108;9.358;2023-04-08T11:18:03;18.77;;;14.95;;
64986;SDS011;67903;52.108;9.358;2023-04-08T11:20:31;23.48;;;16.67;;
64986;SDS011;67903;52.108;9.358;2023-04-08T11:23:01;20.65;;;15.98;;
64986;SDS011;67903;52.108;9.358;2023-04-08T11:25:28;20.23;;;15.80;;
64986;SDS011;67903;52.108;9.358;2023-04-08T11:27:56;21.13;;;16.00;;
64986;SDS011;67903;52.108;9.358;2023-04-08T11:30:23;19.95;;;15.63;;
64986;SDS011;67903;52.108;9.358;2023-04-08T11:32:50;17.65;;;14.93;;
64986;SDS011;67903;52.108;9.358;2023-04-08T11:35:17;19.52;;;15.52;;
64986;SDS011;67903;52.108;9.358;2023-04-08T11:37:44;20.88;;;15.65;;
64986;SDS011;67903;52.108;9.358;2023-04-08T11:40:18;24.33;;;17.15;;
64986;SDS011;67903;52.108;9.358;2023-04-08T11:42:46;22.30;;;16.35;;
64986;SDS011;67903;52.108;9.358;2023-04-08T11:45:14;20.35;;;16.02;;
64986;SDS011;67903;52.108;9.358;2023-04-08T11:47:42;23.48;;;16.83;;
64986;SDS011;67903;52.108;9.358;2023-04-08T11:50:09;20.20;;;16.38;;
64986;SDS011;67903;52.108;9.358;2023-04-08T11:52:54;22.73;;;15.95;;
64986;SDS011;67903;52.108;9.358;2023-04-08T11:55:23;19.88;;;16.23;;
64986;SDS011;67903;52.108;9.358;2023-04-08T11:57:54;18.75;;;15.35;;
64986;SDS011;67903;52.108;9.358;2023-04-08T12:00:22;20.70;;;15.20;;
64986;SDS011;67903;52.108;9.358;2023-04-08T12:02:50;21.70;;;16.15;;
64986;SDS011;67903;52.108;9.358;2023-04-08T12:05:18;21.30;;;16.20;;
64986;SDS011;67903;52.108;9.358;2023-04-08T12:07:45;23.70;;;16.13;;
64986;SDS011;67903;52.108;9.358;2023-04-08T12:10:13;24.27;;;17.40;;
64986;SDS011;67903;52.108;9.358;2023-04-08T12:12:39;22.38;;;16.85;;
64986;SDS011;67903;52.108;9.358;2023-04-08T12:15:06;21.58;;;17.15;;
64986;SDS011;67903;52.108;9.358;2023-04-08T12:17:34;21.45;;;16.27;;
64986;SDS011;67903;52.108;9.358;2023-04-08T12:20:01;22.40;;;16.77;;
64986;SDS011;67903;52.108;9.358;2023-04-08T12:22:29;20.52;;;16.20;;
64986;SDS011;67903;52.108;9.358;2023-04-08T12:24:56;19.13;;;15.30;;
64986;SDS011;67903;52.108;9.358;2023-04-08T12:27:24;23.63;;;17.27;;
64986;SDS011;67903;52.108;9.358;2023-04-08T12:29:51;21.25;;;17.02;;
64986;SDS011;67903;52.108;9.358;2023-04-08T12:32:18;24.40;;;17.17;;
64986;SDS011;67903;52.108;9.358;2023-04-08T12:34:45;21.85;;;17.15;;
64986;SDS011;67903;52.108;9.358;2023-04-08T12:37:12;23.30;;;17.70;;
64986;SDS011;67903;52.108;9.358;2023-04-08T12:39:39;22.30;;;17.85;;
64986;SDS011;67903;52.108;9.358;2023-04-08T12:42:06;25.70;;;18.65;;
64986;SDS011;67903;52.108;9.358;2023-04-08T12:44:33;26.15;;;19.40;;
64986;SDS011;67903;52.108;9.358;2023-04-08T12:46:59;25.15;;;18.13;;
64986;SDS011;67903;52.108;9.358;2023-04-08T12:49:26;26.15;;;19.23;;
64986;SDS011;67903;52.108;9.358;2023-04-08T12:51:53;26.98;;;19.48;;
64986;SDS011;67903;52.108;9.358;2023-04-08T12:54:20;24.90;;;19.67;;
64986;SDS011;67903;52.108;9.358;2023-04-08T12:56:47;23.17;;;18.48;;
64986;SDS011;67903;52.108;9.358;2023-04-08T12:59:14;25.83;;;19.40;;
64986;SDS011;67903;52.108;9.358;2023-04-08T13:01:41;25.10;;;20.05;;
64986;SDS011;67903;52.108;9.358;2023-04-08T13:04:08;28.05;;;20.42;;
64986;SDS011;67903;52.108;9.358;2023-04-08T13:06:35;28.40;;;19.77;;
64986;SDS011;67903;52.108;9.358;2023-04-08T13:09:02;28.38;;;20.30;;
64986;SDS011;67903;52.108;9.358;2023-04-08T13:11:29;26.58;;;20.48;;
64986;SDS011;67903;52.108;9.358;2023-04-08T13:13:56;27.23;;;20.13;;
64986;SDS011;67903;52.108;9.358;2023-04-08T13:16:23;27.77;;;20.45;;
64986;SDS011;67903;52.108;9.358;2023-04-08T13:18:50;27.42;;;20.27;;
64986;SDS011;67903;52.108;9.358;2023-04-08T13:21:18;28.48;;;21.52;;
64986;SDS011;67903;52.108;9.358;2023-04-08T13:23:44;32.33;;;22.08;;
64986;SDS011;67903;52.108;9.358;2023-04-08T13:26:12;31.02;;;22.65;;
64986;SDS011;67903;52.108;9.358;2023-04-08T13:28:39;29.98;;;22.27;;
64986;SDS011;67903;52.108;9.358;2023-04-08T13:31:22;30.23;;;22.15;;
64986;SDS011;67903;52.108;9.358;2023-04-08T13:33:49;32.15;;;22.50;;
64986;SDS011;67903;52.108;9.358;2023-04-08T13:36:15;29.90;;;20.73;;
64986;SDS011;67903;52.108;9.358;2023-04-08T13:38:42;30.63;;;22.58;;
64986;SDS011;67903;52.108;9.358;2023-04-08T13:41:11;30.60;;;22.20;;
64986;SDS011;67903;52.108;9.358;2023-04-08T13:43:38;28.73;;;21.83;;
64986;SDS011;67903;52.108;9.358;2023-04-08T13:46:05;29.80;;;22.00;;
64986;SDS011;67903;52.108;9.358;2023-04-08T13:48:32;28.42;;;20.30;;
64986;SDS011;67903;52.108;9.358;2023-04-08T13:50:58;30.30;;;22.58;;
64986;SDS011;67903;52.108;9.358;2023-04-08T13:53:25;29.73;;;21.48;;
64986;SDS011;67903;52.108;9.358;2023-04-08T13:55:52;29.80;;;22.23;;
64986;SDS011;67903;52.108;9.358;2023-04-08T13:58:21;30.63;;;21.02;;
64986;SDS011;67903;52.108;9.358;2023-04-08T14:00:49;27.48;;;20.40;;
64986;SDS011;67903;52.108;9.358;2023-04-08T14:03:17;25.40;;;19.60;;
64986;SDS011;67903;52.108;9.358;2023-04-08T14:05:44;28.20;;;19.77;;
64986;SDS011;67903;52.108;9.358;2023-04-08T14:08:11;26.63;;;20.25;;
64986;SDS011;67903;52.108;9.358;2023-04-08T14:10:39;26.58;;;20.25;;
64986;SDS011;67903;52.108;9.358;2023-04-08T14:13:07;27.83;;;19.98;;
64986;SDS011;67903;52.108;9.358;2023-04-08T14:15:34;26.73;;;19.90;;
64986;SDS011;67903;52.108;9.358;2023-04-08T14:18:01;23.65;;;19.42;;
64986;SDS011;67903;52.108;9.358;2023-04-08T14:20:28;27.33;;;19.90;;
64986;SDS011;67903;52.108;9.358;2023-04-08T14:22:55;25.80;;;19.42;;
64986;SDS011;67903;52.108;9.358;2023-04-08T14:25:22;25.52;;;19.77;;
64986;SDS011;67903;52.108;9.358;2023-04-08T14:27:49;31.60;;;20.98;;
64986;SDS011;67903;52.108;9.358;2023-04-08T14:30:24;27.52;;;19.63;;
64986;SDS011;67903;52.108;9.358;2023-04-08T14:32:52;26.92;;;18.17;;
64986;SDS011;67903;52.108;9.358;2023-04-08T14:35:20;28.20;;;20.35;;
64986;SDS011;67903;52.108;9.358;2023-04-08T14:37:47;26.17;;;17.83;;
64986;SDS011;67903;52.108;9.358;2023-04-08T14:40:13;25.95;;;19.50;;
64986;SDS011;67903;52.108;9.358;2023-04-08T14:42:40;27.60;;;20.20;;
64986;SDS011;67903;52.108;9.358;2023-04-08T14:45:07;26.33;;;19.45;;
64986;SDS011;67903;52.108;9.358;2023-04-08T14:47:34;26.10;;;19.08;;
64986;SDS011;67903;52.108;9.358;2023-04-08T14:50:01;27.77;;;20.75;;
64986;SDS011;67903;52.108;9.358;2023-04-08T14:52:28;27.05;;;19.85;;
64986;SDS011;67903;52.108;9.358;2023-04-08T14:54:54;24.90;;;19.05;;